Algowood — VCTD — position and weather

sailwx.info

Track history (hours):
 
Tides and Currents Weather Stations Pressure Air Temp Water Temp Dewpoint Dewpoint Depression Visibility Wind Speed Wind Dir Waves Ship Positions

Algowood

Last reported at 2014-Oct-22 14:29 UTC. Time now 2014-Oct-24 09:34 UTC.
Position N 42°36' W 079°46'.

Length 223 m; draft 8.1 m.

Type: Cargo ship. MMSI: 316001802.

Date/timePositionNaut miles runAvg speedWind from/ knotsBaromVisibWave heightAir tempDewpointWater temp
2014-Oct-22 14:29N 42°36' W 079°46'1011.0
2014-Oct-22 13:32N 42°30' W 079°58'1111.1
2014-Oct-22 12:33N 42°26' W 080°12'9 0.2
2014-Oct-20 12:27N 42°26' W 079°59'15 0.3
2014-Oct-18 13:27N 42°36' W 079°45'1011.0
2014-Oct-18 12:33N 42°31' W 079°56'1111.1
2014-Oct-18 11:33N 42°26' W 080°10'246 6.8
2014-Oct-16 23:31N 45°42' W 083°36'1611.4
2014-Oct-16 22:06N 45°54' W 083°51'910.3
2014-Oct-16 21:14N 46°03' W 083°56'  
Track history (hours):
 
Tides and Currents Weather Stations Pressure Air Temp Water Temp Dewpoint Dewpoint Depression Visibility Wind Speed Wind Dir Waves Ship Positions

Algowood

Last reported at 2014-Oct-22 14:29 UTC. Time now 2014-Oct-24 09:34 UTC.
Position N 42°36' W 079°46'.

Length 223 m; draft 8.1 m.

Type: Cargo ship. MMSI: 316001802.

Date/timePositionNaut miles runAvg speedWind from/ knotsBaromVisibWave heightAir tempDewpointWater temp
2014-Oct-22 14:29N 42°36' W 079°46'1011.0
2014-Oct-22 13:32N 42°30' W 079°58'1111.1
2014-Oct-22 12:33N 42°26' W 080°12'9 0.2
2014-Oct-20 12:27N 42°26' W 079°59'15 0.3
2014-Oct-18 13:27N 42°36' W 079°45'1011.0
2014-Oct-18 12:33N 42°31' W 079°56'1111.1
2014-Oct-18 11:33N 42°26' W 080°10'246 6.8
2014-Oct-16 23:31N 45°42' W 083°36'1611.4
2014-Oct-16 22:06N 45°54' W 083°51'910.3
2014-Oct-16 21:14N 46°03' W 083°56'  

Dump ship's entire track history